Time;durP1;ratioP1;P1;durP2;ratioP2;P2;SDS_P1;SDS_P2;PMS_P1;PMS_P2;Temp;Humidity;BMP_temperature;BMP_pressure;BME280_temperature;BME280_humidity;BME280_pressure;Samples;Min_cycle;Max_cycle;Signal;HPM_P1;HPM_P2
2023/07/31 00:01:51;;;;;;;2.35;1.52;;;;;;;;;;5015864;28;20566;-84
2023/07/31 00:04:18;;;;;;;3.13;1.70;;;;;;;;;;5016610;28;20207;-84
2023/07/31 00:06:45;;;;;;;3.22;1.63;;;;;;;;;;5015760;28;20238;-84
2023/07/31 00:09:12;;;;;;;5.15;1.55;;;;;;;;;;5016313;28;20230;-84
2023/07/31 00:11:39;;;;;;;2.95;1.40;;;;;;;;;;5031677;28;20230;-83
2023/07/31 00:14:06;;;;;;;4.10;1.70;;;;;;;;;;5036177;28;20206;-84
2023/07/31 00:16:33;;;;;;;2.17;1.58;;;;;;;;;;5035547;28;20213;-84
2023/07/31 00:19:01;;;;;;;3.40;1.60;;;;;;;;;;5035618;28;20211;-83
2023/07/31 00:21:28;;;;;;;3.22;1.55;;;;;;;;;;5023962;28;20231;-85
2023/07/31 00:23:55;;;;;;;2.60;1.67;;;;;;;;;;5026611;28;20218;-85
2023/07/31 00:26:22;;;;;;;3.85;1.48;;;;;;;;;;5015889;28;20224;-85
2023/07/31 00:28:49;;;;;;;5.85;1.85;;;;;;;;;;5015979;28;20239;-85
2023/07/31 00:31:16;;;;;;;2.50;1.60;;;;;;;;;;5019746;28;20222;-85
2023/07/31 00:33:44;;;;;;;4.43;2.25;;;;;;;;;;5015311;28;20235;-84
2023/07/31 00:36:12;;;;;;;5.85;1.88;;;;;;;;;;5025593;28;20210;-85
2023/07/31 00:38:41;;;;;;;3.28;1.52;;;;;;;;;;5034980;28;20257;-85
2023/07/31 00:41:08;;;;;;;3.05;1.80;;;;;;;;;;5035507;28;20238;-85
2023/07/31 00:43:35;;;;;;;4.80;1.75;;;;;;;;;;5034745;28;20260;-85
2023/07/31 00:46:02;;;;;;;6.95;1.52;;;;;;;;;;5035510;28;20227;-84
2023/07/31 00:48:30;;;;;;;2.85;1.83;;;;;;;;;;5023729;28;20237;-84
2023/07/31 00:50:57;;;;;;;3.35;1.40;;;;;;;;;;5015540;28;20231;-85
2023/07/31 00:53:25;;;;;;;1.90;1.42;;;;;;;;;;5015126;28;20597;-84
2023/07/31 00:55:53;;;;;;;3.58;2.10;;;;;;;;;;5014782;28;20200;-85
2023/07/31 01:01:26;;;;;;;2.08;1.48;;;;;;;;;;5022265;28;20218;-83
2023/07/31 01:03:54;;;;;;;3.22;1.77;;;;;;;;;;5036231;28;20620;-84
2023/07/31 01:06:27;;;;;;;2.92;1.50;;;;;;;;;;5027404;28;20226;-85
2023/07/31 01:09:00;;;;;;;1.63;1.35;;;;;;;;;;5033903;28;20243;-84
2023/07/31 01:11:28;;;;;;;4.10;1.55;;;;;;;;;;5018993;28;20638;-85
2023/07/31 01:13:56;;;;;;;1.75;1.60;;;;;;;;;;5029805;28;20227;-84
2023/07/31 01:16:23;;;;;;;3.67;1.70;;;;;;;;;;5014981;28;20207;-83
2023/07/31 01:18:50;;;;;;;4.30;2.05;;;;;;;;;;5014614;28;20238;-85
2023/07/31 01:21:24;;;;;;;5.68;1.85;;;;;;;;;;5043325;23;20245;-81
2023/07/31 01:23:56;;;;;;;3.83;1.48;;;;;;;;;;5034300;28;20246;-82
2023/07/31 01:26:25;;;;;;;3.40;1.98;;;;;;;;;;5046749;28;20222;-82
2023/07/31 01:28:57;;;;;;;3.58;1.80;;;;;;;;;;5039684;28;20249;-83
2023/07/31 01:31:25;;;;;;;2.65;1.52;;;;;;;;;;5039855;28;20272;-82
2023/07/31 01:33:54;;;;;;;3.90;1.80;;;;;;;;;;5041339;28;20296;-82
2023/07/31 01:36:21;;;;;;;3.05;1.73;;;;;;;;;;5043111;28;20234;-82
2023/07/31 01:38:48;;;;;;;3.25;1.52;;;;;;;;;;5039400;28;20226;-82
2023/07/31 01:41:18;;;;;;;2.78;1.52;;;;;;;;;;5027599;28;20230;-83
2023/07/31 01:43:46;;;;;;;4.03;2.20;;;;;;;;;;5032312;28;20731;-82
2023/07/31 01:46:13;;;;;;;2.85;1.75;;;;;;;;;;5042731;28;20718;-83
2023/07/31 01:48:40;;;;;;;2.65;1.48;;;;;;;;;;5040401;28;20232;-82
2023/07/31 01:51:07;;;;;;;2.85;1.55;;;;;;;;;;5037880;28;20199;-83
2023/07/31 01:53:34;;;;;;;3.78;1.75;;;;;;;;;;5030577;28;20609;-82
2023/07/31 01:56:01;;;;;;;3.80;1.90;;;;;;;;;;5042384;28;20200;-83
2023/07/31 01:58:28;;;;;;;3.92;1.73;;;;;;;;;;5042122;28;20225;-83
2023/07/31 02:00:57;;;;;;;4.18;1.95;;;;;;;;;;5036293;28;20290;-82
2023/07/31 02:03:24;;;;;;;4.95;1.90;;;;;;;;;;5037910;28;20700;-83
2023/07/31 02:05:51;;;;;;;3.83;1.83;;;;;;;;;;5029741;28;20230;-83
2023/07/31 02:08:18;;;;;;;3.53;2.10;;;;;;;;;;5039227;28;20576;-83
2023/07/31 02:10:45;;;;;;;2.03;1.73;;;;;;;;;;5038789;28;20210;-82
2023/07/31 02:13:12;;;;;;;3.15;1.70;;;;;;;;;;5036600;28;20236;-82
2023/07/31 02:15:39;;;;;;;2.40;2.15;;;;;;;;;;5040772;28;20210;-82
2023/07/31 02:18:08;;;;;;;3.63;1.85;;;;;;;;;;5040892;28;20726;-83
2023/07/31 02:20:36;;;;;;;2.92;1.85;;;;;;;;;;5041415;28;20213;-82
2023/07/31 02:23:03;;;;;;;3.35;1.80;;;;;;;;;;5038792;28;20262;-83
2023/07/31 02:25:30;;;;;;;2.20;2.00;;;;;;;;;;5039737;28;20676;-82
2023/07/31 02:27:57;;;;;;;3.72;1.73;;;;;;;;;;5042429;28;20229;-82
2023/07/31 02:30:24;;;;;;;3.05;1.77;;;;;;;;;;5032809;28;20206;-82
2023/07/31 02:32:51;;;;;;;2.65;1.88;;;;;;;;;;5041938;28;20252;-82
2023/07/31 02:35:19;;;;;;;4.38;1.63;;;;;;;;;;5042706;28;20680;-83
2023/07/31 02:37:46;;;;;;;3.22;2.03;;;;;;;;;;5041985;28;20747;-84
2023/07/31 02:40:14;;;;;;;4.18;2.05;;;;;;;;;;5042857;28;20206;-82
2023/07/31 02:42:41;;;;;;;3.50;1.73;;;;;;;;;;5039769;28;20234;-82
2023/07/31 02:45:08;;;;;;;3.13;1.83;;;;;;;;;;5039133;28;20213;-83
2023/07/31 02:47:36;;;;;;;3.38;1.50;;;;;;;;;;5039486;28;20230;-83
2023/07/31 02:50:03;;;;;;;4.22;1.80;;;;;;;;;;5042495;28;20668;-82
2023/07/31 02:52:31;;;;;;;2.85;1.92;;;;;;;;;;5041321;28;20245;-82
2023/07/31 02:54:58;;;;;;;5.65;2.00;;;;;;;;;;5038993;28;20295;-83
2023/07/31 02:57:25;;;;;;;1.80;1.65;;;;;;;;;;5038695;28;20594;-83
2023/07/31 02:59:52;;;;;;;6.68;1.95;;;;;;;;;;5042198;28;20560;-82
2023/07/31 03:02:20;;;;;;;2.28;1.60;;;;;;;;;;5041801;28;20233;-83
2023/07/31 03:04:47;;;;;;;3.13;1.83;;;;;;;;;;5039565;28;20217;-82
2023/07/31 03:07:14;;;;;;;3.50;2.15;;;;;;;;;;5037984;28;20256;-83
2023/07/31 03:09:42;;;;;;;6.30;1.88;;;;;;;;;;5040514;28;20210;-82
2023/07/31 03:12:09;;;;;;;2.97;1.77;;;;;;;;;;5037172;28;20234;-83
2023/07/31 03:14:36;;;;;;;4.50;2.03;;;;;;;;;;5033069;28;20634;-82
2023/07/31 03:17:04;;;;;;;3.33;2.00;;;;;;;;;;5041943;28;20237;-83
2023/07/31 03:19:32;;;;;;;3.22;1.83;;;;;;;;;;5032878;28;20206;-82
2023/07/31 03:21:59;;;;;;;2.58;1.92;;;;;;;;;;5044819;28;20257;-82
2023/07/31 03:24:26;;;;;;;2.40;1.80;;;;;;;;;;5045858;28;20198;-82
2023/07/31 03:26:54;;;;;;;3.72;1.85;;;;;;;;;;5041618;28;20230;-83
2023/07/31 03:29:21;;;;;;;3.72;2.03;;;;;;;;;;5042473;28;20722;-82
2023/07/31 03:31:49;;;;;;;2.60;1.48;;;;;;;;;;5046439;28;20237;-82
2023/07/31 03:34:16;;;;;;;4.55;2.42;;;;;;;;;;5042703;28;20234;-82
2023/07/31 03:36:43;;;;;;;3.10;1.52;;;;;;;;;;5043180;28;20217;-82
2023/07/31 03:39:10;;;;;;;4.82;2.00;;;;;;;;;;5045721;28;20206;-83
2023/07/31 03:41:37;;;;;;;6.20;1.95;;;;;;;;;;5043945;28;20225;-83
2023/07/31 03:44:05;;;;;;;4.35;2.30;;;;;;;;;;5042249;28;20215;-83
2023/07/31 03:46:33;;;;;;;3.67;1.58;;;;;;;;;;5041894;28;20696;-83
2023/07/31 03:49:00;;;;;;;4.57;2.13;;;;;;;;;;5046753;28;20667;-82
2023/07/31 03:51:27;;;;;;;3.38;1.98;;;;;;;;;;5045756;28;20218;-84
2023/07/31 03:53:54;;;;;;;3.85;2.03;;;;;;;;;;5045105;28;20206;-83
2023/07/31 03:56:22;;;;;;;5.10;2.25;;;;;;;;;;5047125;28;20199;-83
2023/07/31 03:58:49;;;;;;;7.22;1.75;;;;;;;;;;5042670;28;20230;-83
2023/07/31 04:01:19;;;;;;;6.80;2.10;;;;;;;;;;5043494;28;20245;-82
2023/07/31 04:03:46;;;;;;;3.33;2.17;;;;;;;;;;5044717;28;20230;-82
2023/07/31 04:06:13;;;;;;;3.90;1.83;;;;;;;;;;5046321;28;20226;-82
2023/07/31 04:08:40;;;;;;;3.00;2.17;;;;;;;;;;5028908;28;20227;-82
2023/07/31 04:11:07;;;;;;;3.30;2.13;;;;;;;;;;5045613;28;20210;-82
2023/07/31 04:13:34;;;;;;;3.33;2.25;;;;;;;;;;5044466;28;20222;-83
2023/07/31 04:16:01;;;;;;;5.63;2.45;;;;;;;;;;5049777;28;20198;-82
2023/07/31 04:18:30;;;;;;;6.30;2.20;;;;;;;;;;5038326;28;20242;-83
2023/07/31 04:20:58;;;;;;;4.35;2.10;;;;;;;;;;5045449;28;20289;-83
2023/07/31 04:23:25;;;;;;;4.57;1.77;;;;;;;;;;5041617;28;20222;-83
2023/07/31 04:25:52;;;;;;;7.68;2.55;;;;;;;;;;5042228;28;20214;-82
2023/07/31 04:28:19;;;;;;;6.63;2.30;;;;;;;;;;5045912;28;20237;-83
2023/07/31 04:30:46;;;;;;;3.60;2.08;;;;;;;;;;5039671;28;20210;-82
2023/07/31 04:33:13;;;;;;;3.45;1.90;;;;;;;;;;5044224;28;20257;-82
2023/07/31 04:35:42;;;;;;;3.28;2.20;;;;;;;;;;5036851;28;20217;-82
2023/07/31 04:38:09;;;;;;;4.75;2.10;;;;;;;;;;5037357;28;20230;-83
2023/07/31 04:40:36;;;;;;;3.97;2.17;;;;;;;;;;5036348;28;20205;-83
2023/07/31 04:43:03;;;;;;;3.53;2.15;;;;;;;;;;5040107;28;20238;-83
2023/07/31 04:45:30;;;;;;;2.83;2.08;;;;;;;;;;5036563;28;20206;-83
2023/07/31 04:47:57;;;;;;;5.07;2.38;;;;;;;;;;5034007;28;20239;-83
2023/07/31 04:50:24;;;;;;;2.40;2.00;;;;;;;;;;5036144;28;20203;-83
2023/07/31 04:52:52;;;;;;;5.75;2.53;;;;;;;;;;5041587;28;20723;-82
2023/07/31 04:55:19;;;;;;;4.57;2.30;;;;;;;;;;5044738;28;20656;-83
2023/07/31 04:57:46;;;;;;;2.35;2.00;;;;;;;;;;5035277;28;20234;-82
2023/07/31 05:00:14;;;;;;;5.03;2.50;;;;;;;;;;5044373;28;20194;-83
2023/07/31 05:02:41;;;;;;;2.47;1.90;;;;;;;;;;5038792;28;20242;-83
2023/07/31 05:05:08;;;;;;;4.97;2.00;;;;;;;;;;5044571;28;20686;-83
2023/07/31 05:07:35;;;;;;;3.10;2.13;;;;;;;;;;5045520;28;20232;-83
2023/07/31 05:10:04;;;;;;;6.53;2.40;;;;;;;;;;5034269;28;20213;-82
2023/07/31 05:12:31;;;;;;;2.30;1.92;;;;;;;;;;5040793;28;20237;-83
2023/07/31 05:14:58;;;;;;;7.45;2.40;;;;;;;;;;5043661;28;20202;-84
2023/07/31 05:17:25;;;;;;;6.18;2.40;;;;;;;;;;5043976;28;20248;-83
2023/07/31 05:19:52;;;;;;;5.32;2.50;;;;;;;;;;5041795;28;20210;-83
2023/07/31 05:22:19;;;;;;;2.67;1.92;;;;;;;;;;5040087;28;20231;-83
2023/07/31 05:24:46;;;;;;;4.03;2.22;;;;;;;;;;5041598;28;20230;-83
2023/07/31 05:27:18;;;;;;;3.03;2.30;;;;;;;;;;5043599;28;20229;-84
2023/07/31 05:29:45;;;;;;;4.97;2.47;;;;;;;;;;5042970;28;20639;-83
2023/07/31 05:32:12;;;;;;;6.60;2.38;;;;;;;;;;5040100;28;20712;-83
2023/07/31 05:34:39;;;;;;;4.25;2.10;;;;;;;;;;5040545;28;20672;-82
2023/07/31 05:37:06;;;;;;;3.28;2.10;;;;;;;;;;5039527;28;20275;-83
2023/07/31 05:39:33;;;;;;;4.35;2.13;;;;;;;;;;5047327;28;20206;-82
2023/07/31 05:42:00;;;;;;;7.05;2.70;;;;;;;;;;5039350;28;20241;-83
2023/07/31 05:44:29;;;;;;;4.97;2.38;;;;;;;;;;5022179;28;20293;-83
2023/07/31 05:46:56;;;;;;;4.20;2.28;;;;;;;;;;5035786;28;20234;-82
2023/07/31 05:49:23;;;;;;;7.03;2.33;;;;;;;;;;5037894;28;20202;-84
2023/07/31 05:51:50;;;;;;;4.22;2.20;;;;;;;;;;5027763;28;20669;-84
2023/07/31 05:54:17;;;;;;;2.78;2.10;;;;;;;;;;5029893;28;20217;-83
2023/07/31 05:56:44;;;;;;;3.95;2.10;;;;;;;;;;5043584;28;20213;-82
2023/07/31 05:59:11;;;;;;;4.22;1.75;;;;;;;;;;5040209;28;20207;-83
2023/07/31 06:01:40;;;;;;;3.15;2.63;;;;;;;;;;5033188;28;20225;-84
2023/07/31 06:04:07;;;;;;;3.90;2.35;;;;;;;;;;5037692;28;20199;-83
2023/07/31 06:06:34;;;;;;;4.45;2.28;;;;;;;;;;5038705;28;20202;-83
2023/07/31 06:09:01;;;;;;;3.90;2.03;;;;;;;;;;5039257;28;20281;-83
2023/07/31 06:11:28;;;;;;;5.40;2.53;;;;;;;;;;5039323;28;20234;-84
2023/07/31 06:13:55;;;;;;;5.38;3.38;;;;;;;;;;5042203;28;20206;-84
2023/07/31 06:16:22;;;;;;;7.68;2.58;;;;;;;;;;5035868;28;20738;-80
2023/07/31 06:18:50;;;;;;;4.10;2.30;;;;;;;;;;5031462;28;20233;-80
2023/07/31 06:21:17;;;;;;;3.20;2.00;;;;;;;;;;5037107;28;20236;-80
2023/07/31 06:23:44;;;;;;;3.15;2.05;;;;;;;;;;5045758;28;20606;-79
2023/07/31 06:26:11;;;;;;;3.95;2.08;;;;;;;;;;5032762;28;20209;-80
2023/07/31 06:28:38;;;;;;;4.60;2.45;;;;;;;;;;5039205;28;20262;-80
2023/07/31 06:31:06;;;;;;;3.53;1.67;;;;;;;;;;5031803;28;20285;-79
2023/07/31 06:33:33;;;;;;;4.72;2.00;;;;;;;;;;5039004;28;20225;-80
2023/07/31 06:36:01;;;;;;;7.18;2.38;;;;;;;;;;5039575;28;20210;-80
2023/07/31 06:38:28;;;;;;;4.07;2.30;;;;;;;;;;5033327;28;20237;-80
2023/07/31 06:40:56;;;;;;;3.13;2.05;;;;;;;;;;5041421;28;20213;-81
2023/07/31 06:43:23;;;;;;;7.05;1.98;;;;;;;;;;5039255;28;20233;-81
2023/07/31 06:45:51;;;;;;;2.75;1.63;;;;;;;;;;5041300;28;20217;-81
2023/07/31 06:48:18;;;;;;;6.10;2.58;;;;;;;;;;5043312;28;20236;-81
2023/07/31 06:50:45;;;;;;;7.60;2.40;;;;;;;;;;5043180;28;20206;-80
2023/07/31 06:53:13;;;;;;;4.60;2.58;;;;;;;;;;5040738;28;20230;-82
2023/07/31 06:55:40;;;;;;;5.15;2.20;;;;;;;;;;5038720;28;20625;-81
2023/07/31 06:58:07;;;;;;;3.30;1.70;;;;;;;;;;5035145;28;20259;-80
2023/07/31 07:00:34;;;;;;;3.15;2.33;;;;;;;;;;5043799;28;20207;-81
2023/07/31 07:03:02;;;;;;;5.97;2.30;;;;;;;;;;5050794;28;20233;-81
2023/07/31 07:05:29;;;;;;;2.72;1.85;;;;;;;;;;5044795;28;20695;-80
2023/07/31 07:07:56;;;;;;;4.78;1.88;;;;;;;;;;5038596;28;20234;-80
2023/07/31 07:10:24;;;;;;;3.80;2.00;;;;;;;;;;5047660;28;20209;-80
2023/07/31 07:12:51;;;;;;;6.43;2.40;;;;;;;;;;5046739;28;20234;-80
2023/07/31 07:15:18;;;;;;;3.13;1.95;;;;;;;;;;5047373;28;20198;-79
2023/07/31 07:17:45;;;;;;;5.10;2.00;;;;;;;;;;5044517;28;20230;-82
2023/07/31 07:20:12;;;;;;;4.25;1.88;;;;;;;;;;5047733;28;20198;-80
2023/07/31 07:22:42;;;;;;;5.70;2.25;;;;;;;;;;5048007;28;20237;-90
2023/07/31 07:25:11;;;;;;;2.30;1.83;;;;;;;;;;5039915;28;20860;-91
2023/07/31 07:27:39;;;;;;;3.97;2.20;;;;;;;;;;5045826;28;20245;-89
2023/07/31 07:30:06;;;;;;;3.00;2.10;;;;;;;;;;5048250;28;20720;-89
2023/07/31 07:32:33;;;;;;;2.80;2.00;;;;;;;;;;5041799;28;20241;-93
2023/07/31 07:35:04;;;;;;;3.50;1.98;;;;;;;;;;5035554;28;20204;-91
2023/07/31 07:37:31;;;;;;;4.05;1.95;;;;;;;;;;5034695;28;20218;-88
2023/07/31 07:39:58;;;;;;;3.75;2.13;;;;;;;;;;5026482;28;20215;-91
2023/07/31 07:42:25;;;;;;;5.47;2.00;;;;;;;;;;5037285;28;20242;-87
2023/07/31 07:44:53;;;;;;;4.00;2.03;;;;;;;;;;5032238;28;20214;-92
2023/07/31 07:47:20;;;;;;;4.60;1.90;;;;;;;;;;5027893;28;20243;-87
2023/07/31 07:49:47;;;;;;;4.05;1.85;;;;;;;;;;5037905;28;20211;-91
2023/07/31 07:52:14;;;;;;;5.45;2.25;;;;;;;;;;5037528;28;20235;-92
2023/07/31 07:54:41;;;;;;;5.93;2.00;;;;;;;;;;5030099;28;20220;-92
2023/07/31 07:57:09;;;;;;;6.60;2.50;;;;;;;;;;5032293;28;20241;-89
2023/07/31 07:59:36;;;;;;;4.38;2.20;;;;;;;;;;5035942;28;20199;-90
2023/07/31 08:02:04;;;;;;;4.22;2.28;;;;;;;;;;5036182;28;20688;-89
2023/07/31 08:04:32;;;;;;;3.83;2.20;;;;;;;;;;5032941;28;20203;-86
2023/07/31 08:06:59;;;;;;;4.78;2.10;;;;;;;;;;5033900;28;20231;-86
2023/07/31 08:09:26;;;;;;;2.90;2.30;;;;;;;;;;5030898;28;20230;-87
2023/07/31 08:11:54;;;;;;;3.30;2.08;;;;;;;;;;5035674;28;20245;-87
2023/07/31 08:14:21;;;;;;;4.13;1.95;;;;;;;;;;5038945;28;20202;-89
2023/07/31 08:16:48;;;;;;;3.97;1.98;;;;;;;;;;5039048;28;20230;-89
2023/07/31 08:19:16;;;;;;;2.28;2.00;;;;;;;;;;5043021;28;20187;-92
2023/07/31 08:21:43;;;;;;;3.42;1.80;;;;;;;;;;5042384;28;20238;-89
2023/07/31 08:24:10;;;;;;;4.03;1.73;;;;;;;;;;5042287;28;20209;-91
2023/07/31 08:26:38;;;;;;;3.58;1.88;;;;;;;;;;5044324;28;20213;-96
2023/07/31 08:29:05;;;;;;;5.60;1.88;;;;;;;;;;5030068;28;20230;-94
2023/07/31 08:31:32;;;;;;;4.05;2.00;;;;;;;;;;5023389;28;20310;-93
2023/07/31 08:33:59;;;;;;;5.88;2.33;;;;;;;;;;5030147;28;20203;-89
2023/07/31 08:36:27;;;;;;;5.38;2.00;;;;;;;;;;5041295;28;20210;-94
2023/07/31 08:38:54;;;;;;;6.70;2.40;;;;;;;;;;5043469;28;20681;-94
2023/07/31 08:41:21;;;;;;;3.20;1.95;;;;;;;;;;5041611;28;20219;-93
2023/07/31 08:43:48;;;;;;;7.05;2.25;;;;;;;;;;5039933;28;20226;-91
2023/07/31 08:46:15;;;;;;;3.17;2.20;;;;;;;;;;5040806;28;20214;-92
2023/07/31 08:48:45;;;;;;;3.05;2.05;;;;;;;;;;5041371;28;20235;-91
2023/07/31 08:51:12;;;;;;;5.40;2.10;;;;;;;;;;5030785;28;20242;-89
2023/07/31 08:53:40;;;;;;;2.42;2.08;;;;;;;;;;5030723;28;20241;-93
2023/07/31 08:56:08;;;;;;;5.07;2.30;;;;;;;;;;5040087;28;20228;-91
2023/07/31 08:58:36;;;;;;;2.47;2.00;;;;;;;;;;5029552;28;20275;-93
2023/07/31 09:01:05;;;;;;;3.88;2.10;;;;;;;;;;5028274;28;20210;-92
2023/07/31 09:03:34;;;;;;;2.53;1.95;;;;;;;;;;5037200;28;20302;-93
2023/07/31 09:06:02;;;;;;;2.72;2.00;;;;;;;;;;5028740;28;20223;-91
2023/07/31 09:08:31;;;;;;;4.22;2.17;;;;;;;;;;5032170;28;20273;-93
2023/07/31 09:11:02;;;;;;;6.97;2.47;;;;;;;;;;5038617;28;20261;-89
2023/07/31 09:13:31;;;;;;;5.10;2.20;;;;;;;;;;5025710;28;20595;-88
2023/07/31 09:15:58;;;;;;;3.50;2.50;;;;;;;;;;5023241;28;20230;-89
2023/07/31 09:18:25;;;;;;;3.78;2.10;;;;;;;;;;5026795;28;20234;-90
2023/07/31 09:21:02;;;;;;;2.72;2.08;;;;;;;;;;5028670;28;20207;-91
2023/07/31 09:23:41;;;;;;;5.25;2.30;;;;;;;;;;5019429;28;20230;-91
2023/07/31 09:26:09;;;;;;;3.22;1.90;;;;;;;;;;5029488;28;20213;-92
2023/07/31 09:28:36;;;;;;;2.53;1.77;;;;;;;;;;5033470;28;20719;-87
2023/07/31 09:31:03;;;;;;;5.15;2.22;;;;;;;;;;5038603;28;20615;-91
2023/07/31 09:33:31;;;;;;;4.88;2.33;;;;;;;;;;5039051;28;20233;-91
2023/07/31 09:36:00;;;;;;;5.38;2.03;;;;;;;;;;5047286;28;20246;-88
2023/07/31 09:38:27;;;;;;;3.13;2.20;;;;;;;;;;5044843;28;20234;-90
2023/07/31 09:40:54;;;;;;;5.45;2.15;;;;;;;;;;5052705;28;20217;-89
2023/07/31 09:43:24;;;;;;;4.20;2.35;;;;;;;;;;5059183;28;20233;-86
2023/07/31 09:45:56;;;;;;;5.47;2.08;;;;;;;;;;5040892;28;20223;-87
2023/07/31 09:48:26;;;;;;;5.90;2.70;;;;;;;;;;5043401;28;20289;-88
2023/07/31 09:50:53;;;;;;;3.88;2.28;;;;;;;;;;5038076;28;20743;-83
2023/07/31 09:53:20;;;;;;;5.38;2.10;;;;;;;;;;5027527;28;20724;-84
2023/07/31 09:55:47;;;;;;;4.22;2.45;;;;;;;;;;5025883;28;20211;-90
2023/07/31 09:58:14;;;;;;;5.25;1.75;;;;;;;;;;5023738;28;20501;-91
2023/07/31 10:00:43;;;;;;;5.90;2.58;;;;;;;;;;5029669;28;20207;-90
2023/07/31 10:03:11;;;;;;;2.67;2.20;;;;;;;;;;5036399;28;20246;-87
2023/07/31 10:05:39;;;;;;;2.95;1.90;;;;;;;;;;5035991;28;20207;-87
2023/07/31 10:08:07;;;;;;;3.42;2.10;;;;;;;;;;5020172;28;20235;-85
2023/07/31 10:10:35;;;;;;;7.75;2.67;;;;;;;;;;5023209;28;20203;-89
2023/07/31 10:13:03;;;;;;;5.70;2.35;;;;;;;;;;5034912;28;20241;-89
2023/07/31 10:15:30;;;;;;;4.07;2.38;;;;;;;;;;5032903;28;20243;-88
2023/07/31 10:17:59;;;;;;;3.45;2.13;;;;;;;;;;5019817;28;20223;-87
2023/07/31 10:20:28;;;;;;;4.00;2.30;;;;;;;;;;5033368;28;20661;-89
2023/07/31 10:22:55;;;;;;;5.45;2.15;;;;;;;;;;5023577;28;20243;-85
2023/07/31 10:25:23;;;;;;;3.47;2.08;;;;;;;;;;5033409;28;20210;-86
2023/07/31 10:27:50;;;;;;;5.72;2.38;;;;;;;;;;5031000;28;20238;-89
2023/07/31 10:30:19;;;;;;;3.38;2.15;;;;;;;;;;5026891;28;20214;-88
2023/07/31 10:32:48;;;;;;;6.65;2.00;;;;;;;;;;5026995;28;20345;-88
2023/07/31 10:35:17;;;;;;;4.40;2.00;;;;;;;;;;5020225;28;20238;-89
2023/07/31 10:37:44;;;;;;;8.35;2.15;;;;;;;;;;5034985;28;20241;-90
2023/07/31 10:40:12;;;;;;;5.68;2.13;;;;;;;;;;5038188;28;20203;-89
2023/07/31 10:42:40;;;;;;;4.50;2.55;;;;;;;;;;5025880;28;20241;-89
2023/07/31 10:45:09;;;;;;;5.00;2.45;;;;;;;;;;5040472;28;20692;-87
2023/07/31 10:47:39;;;;;;;3.45;2.30;;;;;;;;;;5032087;28;20230;-89
2023/07/31 10:50:13;;;;;;;4.75;1.92;;;;;;;;;;5039311;28;20218;-89
2023/07/31 10:52:45;;;;;;;3.10;2.30;;;;;;;;;;5034071;28;20245;-91
2023/07/31 10:55:16;;;;;;;3.22;2.03;;;;;;;;;;5021306;28;20215;-89
2023/07/31 10:57:46;;;;;;;3.20;2.47;;;;;;;;;;5035732;28;20234;-90
2023/07/31 11:00:20;;;;;;;5.60;2.35;;;;;;;;;;5037530;28;20199;-90
2023/07/31 11:02:57;;;;;;;3.95;2.35;;;;;;;;;;5020341;28;20659;-89
2023/07/31 11:05:42;;;;;;;5.07;3.10;;;;;;;;;;5024590;28;20206;-88
2023/07/31 11:08:13;;;;;;;4.32;2.50;;;;;;;;;;5036974;28;20233;-90
2023/07/31 11:10:40;;;;;;;4.18;2.70;;;;;;;;;;5033692;28;20218;-89
2023/07/31 11:13:07;;;;;;;4.93;2.63;;;;;;;;;;5036316;28;20246;-86
2023/07/31 11:15:34;;;;;;;3.35;1.63;;;;;;;;;;5037650;28;20658;-86
2023/07/31 11:18:03;;;;;;;4.15;2.10;;;;;;;;;;5034875;28;20238;-91
2023/07/31 11:20:31;;;;;;;6.05;3.35;;;;;;;;;;5033572;28;20204;-90
2023/07/31 11:22:59;;;;;;;6.53;2.67;;;;;;;;;;5019649;28;20266;-89
2023/07/31 11:25:28;;;;;;;5.78;2.83;;;;;;;;;;5032780;28;20202;-91
2023/07/31 11:27:56;;;;;;;7.28;2.53;;;;;;;;;;5038453;28;20235;-87
2023/07/31 11:30:23;;;;;;;4.30;2.58;;;;;;;;;;5026237;28;20226;-90
2023/07/31 11:32:50;;;;;;;6.22;2.60;;;;;;;;;;5034602;28;20265;-87
2023/07/31 11:35:18;;;;;;;6.20;2.90;;;;;;;;;;5015493;28;20265;-89
2023/07/31 11:37:46;;;;;;;8.77;2.72;;;;;;;;;;5033218;28;20239;-88
2023/07/31 11:40:13;;;;;;;5.13;2.10;;;;;;;;;;5034624;28;20241;-87
2023/07/31 11:42:42;;;;;;;4.43;2.25;;;;;;;;;;5034331;28;20284;-89
2023/07/31 11:45:10;;;;;;;7.72;2.70;;;;;;;;;;5034603;28;20234;-88
2023/07/31 11:47:37;;;;;;;5.05;2.53;;;;;;;;;;5034287;28;20234;-89
2023/07/31 11:50:05;;;;;;;3.40;2.28;;;;;;;;;;5034382;28;20227;-89
2023/07/31 11:52:34;;;;;;;6.28;2.95;;;;;;;;;;5021217;28;20600;-88
2023/07/31 11:55:01;;;;;;;4.90;2.30;;;;;;;;;;5014395;28;20215;-90
2023/07/31 11:57:29;;;;;;;3.72;2.17;;;;;;;;;;5026941;28;20234;-89
2023/07/31 11:59:58;;;;;;;4.90;2.65;;;;;;;;;;5026356;28;20210;-89
2023/07/31 12:02:25;;;;;;;5.88;2.45;;;;;;;;;;5025853;28;20245;-87
2023/07/31 12:04:52;;;;;;;2.47;2.25;;;;;;;;;;5033543;28;20397;-91
2023/07/31 12:07:19;;;;;;;2.83;1.80;;;;;;;;;;5031098;28;20234;-89
2023/07/31 12:09:54;;;;;;;3.85;2.28;;;;;;;;;;5023340;28;20227;-89
2023/07/31 12:12:21;;;;;;;5.65;2.40;;;;;;;;;;5033009;28;20234;-91
2023/07/31 12:14:50;;;;;;;5.00;2.38;;;;;;;;;;5030577;28;20245;-91
2023/07/31 12:17:19;;;;;;;3.30;2.05;;;;;;;;;;5023532;28;20303;-90
2023/07/31 12:19:46;;;;;;;3.45;2.13;;;;;;;;;;5027893;28;20203;-87
2023/07/31 12:22:13;;;;;;;3.85;2.55;;;;;;;;;;5029866;28;20226;-89
2023/07/31 12:24:41;;;;;;;4.05;2.35;;;;;;;;;;5020836;28;20739;-91
2023/07/31 12:27:11;;;;;;;6.28;2.55;;;;;;;;;;5014499;28;20235;-93
2023/07/31 12:29:39;;;;;;;4.28;2.67;;;;;;;;;;5015326;28;20231;-93
2023/07/31 12:32:06;;;;;;;4.85;2.58;;;;;;;;;;5014623;28;20239;-96
2023/07/31 12:34:43;;;;;;;3.85;2.38;;;;;;;;;;5019710;28;20731;-87
2023/07/31 12:37:10;;;;;;;2.30;1.90;;;;;;;;;;5033338;28;20233;-88
2023/07/31 12:39:37;;;;;;;4.60;2.63;;;;;;;;;;5032916;28;20207;-88
2023/07/31 12:42:05;;;;;;;8.20;2.45;;;;;;;;;;5029982;28;20245;-87
2023/07/31 12:44:32;;;;;;;6.05;2.40;;;;;;;;;;5034203;28;20657;-86
2023/07/31 12:46:59;;;;;;;4.53;2.58;;;;;;;;;;5025110;28;20242;-85
2023/07/31 12:49:26;;;;;;;3.13;2.03;;;;;;;;;;5024030;28;20231;-87
2023/07/31 12:51:54;;;;;;;3.20;2.42;;;;;;;;;;5025207;28;20258;-88
2023/07/31 12:54:21;;;;;;;3.78;2.78;;;;;;;;;;5022771;28;20247;-85
2023/07/31 12:56:48;;;;;;;5.22;2.17;;;;;;;;;;5022203;28;20231;-87
2023/07/31 12:59:15;;;;;;;3.53;2.40;;;;;;;;;;5024193;28;20214;-87
2023/07/31 13:01:43;;;;;;;5.05;1.90;;;;;;;;;;5026616;28;20227;-88
2023/07/31 13:04:10;;;;;;;3.67;2.40;;;;;;;;;;5014302;28;20326;-86
2023/07/31 13:06:37;;;;;;;5.40;2.30;;;;;;;;;;5027747;28;20246;-88
2023/07/31 13:09:05;;;;;;;5.18;2.08;;;;;;;;;;5012816;28;20701;-87
2023/07/31 13:11:32;;;;;;;4.43;2.55;;;;;;;;;;5016600;28;20224;-87
2023/07/31 13:14:00;;;;;;;4.65;2.22;;;;;;;;;;5014717;28;20215;-87
2023/07/31 13:16:28;;;;;;;5.07;2.13;;;;;;;;;;5035056;28;20213;-85
2023/07/31 13:18:55;;;;;;;5.18;2.45;;;;;;;;;;5036442;28;20223;-87
2023/07/31 13:21:22;;;;;;;2.70;2.45;;;;;;;;;;5030692;28;20732;-93
2023/07/31 13:23:49;;;;;;;4.45;2.15;;;;;;;;;;5037226;28;20235;-88
2023/07/31 13:26:17;;;;;;;5.15;2.47;;;;;;;;;;5034749;28;20211;-92
2023/07/31 13:28:44;;;;;;;3.38;2.35;;;;;;;;;;5019165;28;20236;-87
2023/07/31 13:31:12;;;;;;;6.13;2.58;;;;;;;;;;5021909;28;20226;-87
2023/07/31 13:33:39;;;;;;;7.40;2.55;;;;;;;;;;5020472;28;20289;-85
2023/07/31 13:36:06;;;;;;;6.03;2.35;;;;;;;;;;5020316;28;20588;-85
2023/07/31 13:38:33;;;;;;;4.80;2.05;;;;;;;;;;5027202;28;20338;-85
2023/07/31 13:41:00;;;;;;;4.72;2.28;;;;;;;;;;5031995;28;20222;-87
2023/07/31 13:43:28;;;;;;;2.17;1.98;;;;;;;;;;5023233;28;20238;-84
2023/07/31 13:45:55;;;;;;;5.25;2.20;;;;;;;;;;5032589;28;20207;-87
2023/07/31 13:48:22;;;;;;;4.70;2.28;;;;;;;;;;5027802;28;20245;-87
2023/07/31 13:50:49;;;;;;;6.53;2.35;;;;;;;;;;5026179;28;20231;-89
2023/07/31 13:53:17;;;;;;;2.75;2.00;;;;;;;;;;5025562;28;20246;-86
2023/07/31 13:55:45;;;;;;;5.20;2.28;;;;;;;;;;5034214;28;20198;-87
2023/07/31 13:58:12;;;;;;;7.00;2.30;;;;;;;;;;5018788;28;20258;-89
2023/07/31 14:00:41;;;;;;;5.13;2.17;;;;;;;;;;5025859;28;20214;-87
2023/07/31 14:03:08;;;;;;;4.70;2.03;;;;;;;;;;5024978;28;20249;-87
2023/07/31 14:05:35;;;;;;;3.78;2.30;;;;;;;;;;5024899;28;20211;-89
2023/07/31 14:08:02;;;;;;;3.20;2.20;;;;;;;;;;5024525;28;20612;-87
2023/07/31 14:10:29;;;;;;;3.05;2.78;;;;;;;;;;5021592;28;20231;-86
2023/07/31 14:12:56;;;;;;;3.00;2.30;;;;;;;;;;5032134;28;20231;-88
2023/07/31 14:15:23;;;;;;;2.60;2.10;;;;;;;;;;5024504;28;20206;-85
2023/07/31 14:17:51;;;;;;;3.15;1.77;;;;;;;;;;5023645;28;20238;-87
2023/07/31 14:20:19;;;;;;;3.03;2.30;;;;;;;;;;5024733;28;20214;-85
2023/07/31 14:22:46;;;;;;;2.75;2.25;;;;;;;;;;5026320;28;20249;-86
2023/07/31 14:25:13;;;;;;;4.90;2.17;;;;;;;;;;5028815;28;20213;-86
2023/07/31 14:27:40;;;;;;;6.30;2.45;;;;;;;;;;5024166;28;20258;-87
2023/07/31 14:30:08;;;;;;;2.83;2.08;;;;;;;;;;5024166;28;20230;-87
2023/07/31 14:32:36;;;;;;;4.40;2.42;;;;;;;;;;5019991;28;20241;-85
2023/07/31 14:35:05;;;;;;;4.40;2.05;;;;;;;;;;5020435;28;20669;-86
2023/07/31 14:37:38;;;;;;;3.03;2.15;;;;;;;;;;5021798;28;20239;-88
2023/07/31 14:40:06;;;;;;;3.50;2.67;;;;;;;;;;5016327;28;20895;-87
2023/07/31 14:42:33;;;;;;;5.40;2.17;;;;;;;;;;5020132;28;20243;-86
2023/07/31 14:45:00;;;;;;;5.00;2.08;;;;;;;;;;5028327;28;20202;-87
2023/07/31 14:47:27;;;;;;;3.70;2.38;;;;;;;;;;5023725;28;20227;-87
2023/07/31 14:49:54;;;;;;;4.07;2.50;;;;;;;;;;5020889;28;20239;-86